Vitsentzos Kornaros — SXNX — position and weather

sailwx.info

Track history (hours):
 
Tides and Currents Weather Stations Pressure Air Temp Water Temp Dewpoint Dewpoint Depression Visibility Wind Speed Wind Dir Waves Ship Positions

Vitsentzos Kornaros

Last reported at 2016-Aug-26 18:16 UTC. Time now 2016-Aug-27 16:53 UTC.
Position N 36°59' E 023°26'.

Length 128 m; draft 4.5 m.

Type: Passenger vessel. MMSI: 239311000.

Date/timePositionNaut miles runAvg speedWind from/ knotsBaromVisibWave heightAir tempDewpointWater temp
2016-Aug-26 18:16N 36°59' E 023°26'1115.0
2016-Aug-26 17:33N 37°09' E 023°31'1515.3
2016-Aug-26 16:33N 37°23' E 023°37'1515.2
2016-Aug-26 15:33N 37°38' E 023°42'1514.7
2016-Aug-26 14:34N 37°52' E 023°37'5 4.9
2016-Aug-26 13:34N 37°57' E 023°38'0 0.0
2016-Aug-26 12:33N 37°57' E 023°38'0 0.0
2016-Aug-26 11:34N 37°57' E 023°38'0 0.0
2016-Aug-26 10:34N 37°57' E 023°38'0 0.0
2016-Aug-26 09:34N 37°57' E 023°38'0 0.0
2016-Aug-26 08:33N 37°57' E 023°38'0 0.0
2016-Aug-26 07:33N 37°57' E 023°38'0 0.0
2016-Aug-26 06:33N 37°57' E 023°38'0 0.0
2016-Aug-26 04:33N 37°57' E 023°38'2 2.3
2016-Aug-26 03:33N 37°55' E 023°37'1211.8
2016-Aug-26 02:33N 37°44' E 023°44'1313.4
2016-Aug-26 01:33N 37°31' E 023°41'1413.9
2016-Aug-26 00:33N 37°18' E 023°35'1414.3
2016-Aug-25 23:32N 37°05' E 023°28'1413.8
2016-Aug-25 22:33N 36°52' E 023°22'  
2016-Aug-23 16:32N 35°31' E 023°38'0 0.0
2016-Aug-23 14:30N 35°31' E 023°38'16 1.2
2016-Aug-23 01:12N 35°46' E 023°32'5810.1
2016-Aug-22 19:29N 36°44' E 023°21'1314.3
2016-Aug-22 18:34N 36°56' E 023°25'1414.0
2016-Aug-22 17:33N 37°09' E 023°32'1414.3
2016-Aug-22 16:33N 37°23' E 023°37'1514.9
2016-Aug-22 15:34N 37°38' E 023°42'1514.8
2016-Aug-22 14:34N 37°52' E 023°37'5 5.2
2016-Aug-22 13:34N 37°57' E 023°38'0 0.0
2016-Aug-22 12:34N 37°57' E 023°38'0 0.0
2016-Aug-22 11:34N 37°57' E 023°38'0 0.0
2016-Aug-22 10:33N 37°57' E 023°38'0 0.0
2016-Aug-22 09:34N 37°57' E 023°38'0 0.0
2016-Aug-22 08:34N 37°57' E 023°38'0 0.0
2016-Aug-22 07:34N 37°57' E 023°38'0 0.0
2016-Aug-22 06:34N 37°57' E 023°38'0 0.0
2016-Aug-22 05:33N 37°57' E 023°38'0 0.0
2016-Aug-22 04:34N 37°57' E 023°38'0 0.0
2016-Aug-22 03:34N 37°57' E 023°38'5 4.8
2016-Aug-22 02:33N 37°52' E 023°39'1414.2
2016-Aug-22 01:33N 37°39' E 023°45'1514.7
2016-Aug-22 00:34N 37°25' E 023°38'1515.0
2016-Aug-21 23:34N 37°11' E 023°32'1615.5
2016-Aug-21 22:33N 36°57' E 023°25'1515.0
2016-Aug-21 21:33N 36°42' E 023°20'73 1.7
2016-Aug-20 03:10N 35°31' E 023°39'812.7
2016-Aug-20 02:31N 35°39' E 023°37'1212.7
2016-Aug-20 01:33N 35°48' E 023°26'9 8.8
2016-Aug-20 00:33N 35°53' E 023°17'1211.7
2016-Aug-19 23:32N 36°04' E 023°13'19 7.8
2016-Aug-19 21:04N 36°23' E 023°11'914.3
2016-Aug-19 20:25N 36°32' E 023°16'1315.2
2016-Aug-19 19:33N 36°44' E 023°21'1414.1
2016-Aug-19 18:33N 36°58' E 023°26'1413.9
2016-Aug-19 17:33N 37°11' E 023°33'1414.4
2016-Aug-19 16:34N 37°24' E 023°38'1515.0
2016-Aug-19 15:34N 37°39' E 023°42'1514.5
2016-Aug-19 14:34N 37°53' E 023°37'4 4.3
2016-Aug-19 13:33N 37°57' E 023°38'0 0.0
2016-Aug-19 12:33N 37°57' E 023°38'0 0.0
2016-Aug-19 11:34N 37°57' E 023°38'0 0.0
2016-Aug-19 10:34N 37°57' E 023°38'0 0.0
2016-Aug-19 09:34N 37°57' E 023°38'0 0.0
2016-Aug-19 08:34N 37°57' E 023°38'0 0.0
2016-Aug-19 07:34N 37°57' E 023°38'0 0.0
2016-Aug-19 06:33N 37°57' E 023°38'0 0.0
2016-Aug-19 05:34N 37°57' E 023°38'0 0.0
2016-Aug-19 04:33N 37°57' E 023°38'0 0.1
2016-Aug-19 03:33N 37°57' E 023°38'1111.2
2016-Aug-19 02:33N 37°46' E 023°43'1414.2
2016-Aug-19 01:33N 37°32' E 023°42'1515.1
2016-Aug-19 00:33N 37°18' E 023°35'1616.1
2016-Aug-18 23:33N 37°03' E 023°27'1515.4
2016-Aug-18 22:33N 36°48' E 023°23'1414.5
2016-Aug-18 21:33N 36°34' E 023°17'21 8.7
2016-Aug-18 19:09N 36°15' E 023°08'1014.6
2016-Aug-18 18:29N 36°05' E 023°13'1313.9
2016-Aug-18 17:33N 35°53' E 023°17'9 8.9
2016-Aug-18 16:33N 35°48' E 023°27'20 8.0
2016-Aug-18 14:06N 35°31' E 023°38'0 0.0
2016-Aug-18 13:33N 35°31' E 023°38'0 0.0
2016-Aug-18 12:23N 35°31' E 023°38'0 0.0
2016-Aug-18 11:33N 35°31' E 023°38'0 0.0
2016-Aug-18 10:27N 35°31' E 023°38'0 0.0
2016-Aug-18 09:33N 35°31' E 023°38'0 0.0
2016-Aug-18 07:27N 35°31' E 023°38'48 3.4
2016-Aug-17 17:14N 36°13' E 023°09'9 1.0
2016-Aug-17 08:12N 36°04' E 023°13'1015.0
2016-Aug-17 07:33N 35°55' E 023°17'8 8.0
2016-Aug-17 06:33N 35°50' E 023°24'1515.0
2016-Aug-17 05:32N 35°39' E 023°37'8 3.9
2016-Aug-17 03:33N 35°31' E 023°38'6 6.4
2016-Aug-17 02:33N 35°37' E 023°37'1312.9
2016-Aug-17 01:33N 35°47' E 023°27'10 9.5
2016-Aug-17 00:32N 35°53' E 023°17'1111.1
2016-Aug-16 23:30N 36°04' E 023°14'4310.5
2016-Aug-16 19:23N 36°47' E 023°22'1214.4
2016-Aug-16 18:31N 36°59' E 023°26'  
Track history (hours):
 
Tides and Currents Weather Stations Pressure Air Temp Water Temp Dewpoint Dewpoint Depression Visibility Wind Speed Wind Dir Waves Ship Positions

Vitsentzos Kornaros

Last reported at 2016-Aug-26 18:16 UTC. Time now 2016-Aug-27 16:53 UTC.
Position N 36°59' E 023°26'.

Length 128 m; draft 4.5 m.

Type: Passenger vessel. MMSI: 239311000.

Date/timePositionNaut miles runAvg speedWind from/ knotsBaromVisibWave heightAir tempDewpointWater temp
2016-Aug-26 18:16N 36°59' E 023°26'1115.0
2016-Aug-26 17:33N 37°09' E 023°31'1515.3
2016-Aug-26 16:33N 37°23' E 023°37'1515.2
2016-Aug-26 15:33N 37°38' E 023°42'1514.7
2016-Aug-26 14:34N 37°52' E 023°37'5 4.9
2016-Aug-26 13:34N 37°57' E 023°38'0 0.0
2016-Aug-26 12:33N 37°57' E 023°38'0 0.0
2016-Aug-26 11:34N 37°57' E 023°38'0 0.0
2016-Aug-26 10:34N 37°57' E 023°38'0 0.0
2016-Aug-26 09:34N 37°57' E 023°38'0 0.0
2016-Aug-26 08:33N 37°57' E 023°38'0 0.0
2016-Aug-26 07:33N 37°57' E 023°38'0 0.0
2016-Aug-26 06:33N 37°57' E 023°38'0 0.0
2016-Aug-26 04:33N 37°57' E 023°38'2 2.3
2016-Aug-26 03:33N 37°55' E 023°37'1211.8
2016-Aug-26 02:33N 37°44' E 023°44'1313.4
2016-Aug-26 01:33N 37°31' E 023°41'1413.9
2016-Aug-26 00:33N 37°18' E 023°35'1414.3
2016-Aug-25 23:32N 37°05' E 023°28'1413.8
2016-Aug-25 22:33N 36°52' E 023°22'  
2016-Aug-23 16:32N 35°31' E 023°38'0 0.0
2016-Aug-23 14:30N 35°31' E 023°38'16 1.2
2016-Aug-23 01:12N 35°46' E 023°32'5810.1
2016-Aug-22 19:29N 36°44' E 023°21'1314.3
2016-Aug-22 18:34N 36°56' E 023°25'1414.0
2016-Aug-22 17:33N 37°09' E 023°32'1414.3
2016-Aug-22 16:33N 37°23' E 023°37'1514.9
2016-Aug-22 15:34N 37°38' E 023°42'1514.8
2016-Aug-22 14:34N 37°52' E 023°37'5 5.2
2016-Aug-22 13:34N 37°57' E 023°38'0 0.0
2016-Aug-22 12:34N 37°57' E 023°38'0 0.0
2016-Aug-22 11:34N 37°57' E 023°38'0 0.0
2016-Aug-22 10:33N 37°57' E 023°38'0 0.0
2016-Aug-22 09:34N 37°57' E 023°38'0 0.0
2016-Aug-22 08:34N 37°57' E 023°38'0 0.0
2016-Aug-22 07:34N 37°57' E 023°38'0 0.0
2016-Aug-22 06:34N 37°57' E 023°38'0 0.0
2016-Aug-22 05:33N 37°57' E 023°38'0 0.0
2016-Aug-22 04:34N 37°57' E 023°38'0 0.0
2016-Aug-22 03:34N 37°57' E 023°38'5 4.8
2016-Aug-22 02:33N 37°52' E 023°39'1414.2
2016-Aug-22 01:33N 37°39' E 023°45'1514.7
2016-Aug-22 00:34N 37°25' E 023°38'1515.0
2016-Aug-21 23:34N 37°11' E 023°32'1615.5
2016-Aug-21 22:33N 36°57' E 023°25'1515.0
2016-Aug-21 21:33N 36°42' E 023°20'73 1.7
2016-Aug-20 03:10N 35°31' E 023°39'812.7
2016-Aug-20 02:31N 35°39' E 023°37'1212.7
2016-Aug-20 01:33N 35°48' E 023°26'9 8.8
2016-Aug-20 00:33N 35°53' E 023°17'1211.7
2016-Aug-19 23:32N 36°04' E 023°13'19 7.8
2016-Aug-19 21:04N 36°23' E 023°11'914.3
2016-Aug-19 20:25N 36°32' E 023°16'1315.2
2016-Aug-19 19:33N 36°44' E 023°21'1414.1
2016-Aug-19 18:33N 36°58' E 023°26'1413.9
2016-Aug-19 17:33N 37°11' E 023°33'1414.4
2016-Aug-19 16:34N 37°24' E 023°38'1515.0
2016-Aug-19 15:34N 37°39' E 023°42'1514.5
2016-Aug-19 14:34N 37°53' E 023°37'4 4.3
2016-Aug-19 13:33N 37°57' E 023°38'0 0.0
2016-Aug-19 12:33N 37°57' E 023°38'0 0.0
2016-Aug-19 11:34N 37°57' E 023°38'0 0.0
2016-Aug-19 10:34N 37°57' E 023°38'0 0.0
2016-Aug-19 09:34N 37°57' E 023°38'0 0.0
2016-Aug-19 08:34N 37°57' E 023°38'0 0.0
2016-Aug-19 07:34N 37°57' E 023°38'0 0.0
2016-Aug-19 06:33N 37°57' E 023°38'0 0.0
2016-Aug-19 05:34N 37°57' E 023°38'0 0.0
2016-Aug-19 04:33N 37°57' E 023°38'0 0.1
2016-Aug-19 03:33N 37°57' E 023°38'1111.2
2016-Aug-19 02:33N 37°46' E 023°43'1414.2
2016-Aug-19 01:33N 37°32' E 023°42'1515.1
2016-Aug-19 00:33N 37°18' E 023°35'1616.1
2016-Aug-18 23:33N 37°03' E 023°27'1515.4
2016-Aug-18 22:33N 36°48' E 023°23'1414.5
2016-Aug-18 21:33N 36°34' E 023°17'21 8.7
2016-Aug-18 19:09N 36°15' E 023°08'1014.6
2016-Aug-18 18:29N 36°05' E 023°13'1313.9
2016-Aug-18 17:33N 35°53' E 023°17'9 8.9
2016-Aug-18 16:33N 35°48' E 023°27'20 8.0
2016-Aug-18 14:06N 35°31' E 023°38'0 0.0
2016-Aug-18 13:33N 35°31' E 023°38'0 0.0
2016-Aug-18 12:23N 35°31' E 023°38'0 0.0
2016-Aug-18 11:33N 35°31' E 023°38'0 0.0
2016-Aug-18 10:27N 35°31' E 023°38'0 0.0
2016-Aug-18 09:33N 35°31' E 023°38'0 0.0
2016-Aug-18 07:27N 35°31' E 023°38'48 3.4
2016-Aug-17 17:14N 36°13' E 023°09'9 1.0
2016-Aug-17 08:12N 36°04' E 023°13'1015.0
2016-Aug-17 07:33N 35°55' E 023°17'8 8.0
2016-Aug-17 06:33N 35°50' E 023°24'1515.0
2016-Aug-17 05:32N 35°39' E 023°37'8 3.9
2016-Aug-17 03:33N 35°31' E 023°38'6 6.4
2016-Aug-17 02:33N 35°37' E 023°37'1312.9
2016-Aug-17 01:33N 35°47' E 023°27'10 9.5
2016-Aug-17 00:32N 35°53' E 023°17'1111.1
2016-Aug-16 23:30N 36°04' E 023°14'4310.5
2016-Aug-16 19:23N 36°47' E 023°22'1214.4
2016-Aug-16 18:31N 36°59' E 023°26'  

Dump ship's entire track history